EGCN/DSA METAR and TAF weather

Enter ICAO airport designator
Station Type Date Time Source
EGCN METAR 2020/01/23 19:50 UTC NOAA

EGCN 231950Z 20005KT 9999 OVC015 07/06 Q1027


Station Type Date Time Source
EGCN Decoded METAR 2020/01/23 19:50 UTC NOAA

Station name not available
Jan 23, 2020 - 02:50 PM EST / 2020.01.23 1950 UTC
Wind: from the SSW (200 degrees) at 6 MPH (5 KT):0
Visibility: greater than 7 mile(s):0
Sky conditions: overcast
Temperature: 44 F (7 C)
Dew Point: 42 F (6 C)
Relative Humidity: 93%
Pressure (altimeter): 30.33 in. Hg (1027 hPa)
ob: EGCN 231950Z 20005KT 9999 OVC015 07/06 Q1027
cycle: 20

Station Type Date Time Source
EGCN TAF 2020/01/23 20:00 UTC NOAA

TAF
AMD EGCN 232007Z 2320/2418 VRB04KT 9999 BKN015
TEMPO 2320/2409 3000 BR BKN004 PROB30
TEMPO 2320/2409 0300 FG BKN001
TEMPO 2415/2418 8000

Example: see airport list